sensor_id;sensor_type;location;lat;lon;timestamp;P1;durP1;ratioP1;P2;durP2;ratioP2
20076;SDS011;12348;42.710;23.378;2023-06-24T00:01:43;14.27;;;11.83;;
20076;SDS011;12348;42.710;23.378;2023-06-24T00:04:09;19.03;;;12.77;;
20076;SDS011;12348;42.710;23.378;2023-06-24T00:06:36;15.80;;;12.83;;
20076;SDS011;12348;42.710;23.378;2023-06-24T00:09:04;16.83;;;12.50;;
20076;SDS011;12348;42.710;23.378;2023-06-24T00:11:35;14.73;;;12.60;;
20076;SDS011;12348;42.710;23.378;2023-06-24T00:14:02;17.40;;;13.77;;
20076;SDS011;12348;42.710;23.378;2023-06-24T00:16:30;17.67;;;13.30;;
20076;SDS011;12348;42.710;23.378;2023-06-24T00:18:56;16.40;;;12.73;;
20076;SDS011;12348;42.710;23.378;2023-06-24T00:21:25;19.60;;;13.60;;
20076;SDS011;12348;42.710;23.378;2023-06-24T00:23:55;20.60;;;14.07;;
20076;SDS011;12348;42.710;23.378;2023-06-24T00:26:22;18.13;;;13.27;;
20076;SDS011;12348;42.710;23.378;2023-06-24T00:28:51;20.83;;;13.90;;
20076;SDS011;12348;42.710;23.378;2023-06-24T00:31:18;18.03;;;12.87;;
20076;SDS011;12348;42.710;23.378;2023-06-24T00:33:45;18.27;;;14.57;;
20076;SDS011;12348;42.710;23.378;2023-06-24T00:36:12;15.73;;;12.93;;
20076;SDS011;12348;42.710;23.378;2023-06-24T00:38:39;17.10;;;12.77;;
20076;SDS011;12348;42.710;23.378;2023-06-24T00:41:06;15.87;;;12.47;;
20076;SDS011;12348;42.710;23.378;2023-06-24T00:43:33;14.97;;;12.43;;
20076;SDS011;12348;42.710;23.378;2023-06-24T00:46:01;25.13;;;12.87;;
20076;SDS011;12348;42.710;23.378;2023-06-24T00:48:28;16.20;;;11.80;;
20076;SDS011;12348;42.710;23.378;2023-06-24T00:50:56;16.97;;;12.47;;
20076;SDS011;12348;42.710;23.378;2023-06-24T00:53:24;16.37;;;12.63;;
20076;SDS011;12348;42.710;23.378;2023-06-24T00:55:51;17.17;;;11.90;;
20076;SDS011;12348;42.710;23.378;2023-06-24T00:58:18;16.43;;;12.03;;
20076;SDS011;12348;42.710;23.378;2023-06-24T01:00:46;18.23;;;12.40;;
20076;SDS011;12348;42.710;23.378;2023-06-24T01:03:23;16.73;;;11.47;;
20076;SDS011;12348;42.710;23.378;2023-06-24T01:05:50;17.63;;;12.17;;
20076;SDS011;12348;42.710;23.378;2023-06-24T01:08:18;16.10;;;11.67;;
20076;SDS011;12348;42.710;23.378;2023-06-24T01:10:47;16.20;;;12.20;;
20076;SDS011;12348;42.710;23.378;2023-06-24T01:13:14;16.30;;;12.17;;
20076;SDS011;12348;42.710;23.378;2023-06-24T01:15:42;18.10;;;11.37;;
20076;SDS011;12348;42.710;23.378;2023-06-24T01:18:11;13.17;;;11.60;;
20076;SDS011;12348;42.710;23.378;2023-06-24T01:20:47;13.07;;;10.60;;
20076;SDS011;12348;42.710;23.378;2023-06-24T01:23:36;16.87;;;12.10;;
20076;SDS011;12348;42.710;23.378;2023-06-24T01:26:43;14.73;;;11.10;;
20076;SDS011;12348;42.710;23.378;2023-06-24T01:32:36;15.23;;;11.10;;
20076;SDS011;12348;42.710;23.378;2023-06-24T01:35:07;13.03;;;11.63;;
20076;SDS011;12348;42.710;23.378;2023-06-24T01:37:40;17.77;;;11.30;;
20076;SDS011;12348;42.710;23.378;2023-06-24T01:40:10;14.50;;;11.40;;
20076;SDS011;12348;42.710;23.378;2023-06-24T01:42:41;14.37;;;12.23;;
20076;SDS011;12348;42.710;23.378;2023-06-24T01:45:10;16.77;;;11.27;;
20076;SDS011;12348;42.710;23.378;2023-06-24T01:47:42;15.50;;;12.37;;
20076;SDS011;12348;42.710;23.378;2023-06-24T01:50:12;16.60;;;11.90;;
20076;SDS011;12348;42.710;23.378;2023-06-24T01:52:41;18.60;;;11.57;;
20076;SDS011;12348;42.710;23.378;2023-06-24T01:55:10;14.23;;;10.93;;
20076;SDS011;12348;42.710;23.378;2023-06-24T01:57:41;14.13;;;11.67;;
20076;SDS011;12348;42.710;23.378;2023-06-24T02:00:10;19.30;;;13.27;;
20076;SDS011;12348;42.710;23.378;2023-06-24T02:02:38;17.43;;;12.90;;
20076;SDS011;12348;42.710;23.378;2023-06-24T02:05:07;16.10;;;11.90;;
20076;SDS011;12348;42.710;23.378;2023-06-24T02:07:36;17.90;;;12.13;;
20076;SDS011;12348;42.710;23.378;2023-06-24T02:10:04;15.17;;;11.07;;
20076;SDS011;12348;42.710;23.378;2023-06-24T02:12:33;14.13;;;11.50;;
20076;SDS011;12348;42.710;23.378;2023-06-24T02:15:02;17.17;;;12.23;;
20076;SDS011;12348;42.710;23.378;2023-06-24T02:17:32;16.17;;;10.83;;
20076;SDS011;12348;42.710;23.378;2023-06-24T02:19:59;14.83;;;11.27;;
20076;SDS011;12348;42.710;23.378;2023-06-24T02:22:30;15.67;;;11.97;;
20076;SDS011;12348;42.710;23.378;2023-06-24T02:24:57;13.23;;;10.77;;
20076;SDS011;12348;42.710;23.378;2023-06-24T02:27:25;14.23;;;11.70;;
20076;SDS011;12348;42.710;23.378;2023-06-24T02:29:52;17.40;;;12.43;;
20076;SDS011;12348;42.710;23.378;2023-06-24T02:32:20;18.83;;;12.60;;
20076;SDS011;12348;42.710;23.378;2023-06-24T02:34:47;17.77;;;12.40;;
20076;SDS011;12348;42.710;23.378;2023-06-24T02:37:15;21.63;;;13.83;;
20076;SDS011;12348;42.710;23.378;2023-06-24T02:39:43;19.60;;;14.57;;
20076;SDS011;12348;42.710;23.378;2023-06-24T02:42:10;22.40;;;15.23;;
20076;SDS011;12348;42.710;23.378;2023-06-24T02:44:37;20.90;;;14.97;;
20076;SDS011;12348;42.710;23.378;2023-06-24T02:47:05;22.63;;;16.83;;
20076;SDS011;12348;42.710;23.378;2023-06-24T02:49:33;27.07;;;16.93;;
20076;SDS011;12348;42.710;23.378;2023-06-24T02:52:02;33.43;;;16.77;;
20076;SDS011;12348;42.710;23.378;2023-06-24T02:54:29;24.53;;;16.97;;
20076;SDS011;12348;42.710;23.378;2023-06-24T02:56:57;30.63;;;17.80;;
20076;SDS011;12348;42.710;23.378;2023-06-24T02:59:25;26.60;;;18.27;;
20076;SDS011;12348;42.710;23.378;2023-06-24T03:01:52;26.30;;;17.27;;
20076;SDS011;12348;42.710;23.378;2023-06-24T03:04:20;24.37;;;17.07;;
20076;SDS011;12348;42.710;23.378;2023-06-24T03:06:47;27.87;;;17.87;;
20076;SDS011;12348;42.710;23.378;2023-06-24T03:09:14;24.77;;;17.93;;
20076;SDS011;12348;42.710;23.378;2023-06-24T03:11:43;27.03;;;18.37;;
20076;SDS011;12348;42.710;23.378;2023-06-24T03:14:12;26.67;;;18.40;;
20076;SDS011;12348;42.710;23.378;2023-06-24T03:16:39;24.53;;;17.77;;
20076;SDS011;12348;42.710;23.378;2023-06-24T03:19:07;26.90;;;17.43;;
20076;SDS011;12348;42.710;23.378;2023-06-24T03:21:34;27.43;;;18.77;;
20076;SDS011;12348;42.710;23.378;2023-06-24T03:24:01;28.93;;;18.13;;
20076;SDS011;12348;42.710;23.378;2023-06-24T03:26:33;23.73;;;17.13;;
20076;SDS011;12348;42.710;23.378;2023-06-24T03:29:00;31.70;;;18.07;;
20076;SDS011;12348;42.710;23.378;2023-06-24T03:31:29;22.70;;;16.80;;
20076;SDS011;12348;42.710;23.378;2023-06-24T03:33:56;23.90;;;17.77;;
20076;SDS011;12348;42.710;23.378;2023-06-24T03:36:23;25.00;;;16.57;;
20076;SDS011;12348;42.710;23.378;2023-06-24T03:38:50;24.73;;;16.93;;
20076;SDS011;12348;42.710;23.378;2023-06-24T03:41:17;26.57;;;17.03;;
20076;SDS011;12348;42.710;23.378;2023-06-24T03:43:43;23.43;;;16.00;;
20076;SDS011;12348;42.710;23.378;2023-06-24T03:46:11;24.23;;;15.53;;
20076;SDS011;12348;42.710;23.378;2023-06-24T03:48:39;26.73;;;16.17;;
20076;SDS011;12348;42.710;23.378;2023-06-24T03:51:06;21.87;;;14.90;;
20076;SDS011;12348;42.710;23.378;2023-06-24T03:53:32;22.90;;;14.83;;
20076;SDS011;12348;42.710;23.378;2023-06-24T03:55:59;22.80;;;14.17;;
20076;SDS011;12348;42.710;23.378;2023-06-24T03:58:26;19.57;;;14.27;;
20076;SDS011;12348;42.710;23.378;2023-06-24T04:00:53;21.47;;;14.30;;
20076;SDS011;12348;42.710;23.378;2023-06-24T04:03:22;19.53;;;13.90;;
20076;SDS011;12348;42.710;23.378;2023-06-24T04:05:52;18.53;;;13.07;;
20076;SDS011;12348;42.710;23.378;2023-06-24T04:08:20;16.73;;;14.30;;
20076;SDS011;12348;42.710;23.378;2023-06-24T04:10:47;19.80;;;13.93;;
20076;SDS011;12348;42.710;23.378;2023-06-24T04:13:14;20.97;;;14.27;;
20076;SDS011;12348;42.710;23.378;2023-06-24T04:15:40;16.40;;;12.40;;
20076;SDS011;12348;42.710;23.378;2023-06-24T04:18:07;19.27;;;13.67;;
20076;SDS011;12348;42.710;23.378;2023-06-24T04:20:34;20.50;;;14.23;;
20076;SDS011;12348;42.710;23.378;2023-06-24T04:23:03;21.30;;;12.63;;
20076;SDS011;12348;42.710;23.378;2023-06-24T04:25:30;17.33;;;13.10;;
20076;SDS011;12348;42.710;23.378;2023-06-24T04:27:56;20.30;;;13.27;;
20076;SDS011;12348;42.710;23.378;2023-06-24T04:30:23;15.83;;;11.80;;
20076;SDS011;12348;42.710;23.378;2023-06-24T04:32:50;16.67;;;12.57;;
20076;SDS011;12348;42.710;23.378;2023-06-24T04:35:17;15.00;;;12.33;;
20076;SDS011;12348;42.710;23.378;2023-06-24T04:37:43;15.70;;;11.83;;
20076;SDS011;12348;42.710;23.378;2023-06-24T04:40:12;15.63;;;12.90;;
20076;SDS011;12348;42.710;23.378;2023-06-24T04:42:39;22.53;;;14.90;;
20076;SDS011;12348;42.710;23.378;2023-06-24T04:45:06;24.47;;;16.70;;
20076;SDS011;12348;42.710;23.378;2023-06-24T04:47:33;26.47;;;18.90;;
20076;SDS011;12348;42.710;23.378;2023-06-24T04:50:01;24.07;;;17.73;;
20076;SDS011;12348;42.710;23.378;2023-06-24T04:52:27;24.53;;;15.77;;
20076;SDS011;12348;42.710;23.378;2023-06-24T04:54:54;22.00;;;15.93;;
20076;SDS011;12348;42.710;23.378;2023-06-24T04:57:26;26.20;;;16.93;;
20076;SDS011;12348;42.710;23.378;2023-06-24T04:59:53;18.13;;;14.68;;
20076;SDS011;12348;42.710;23.378;2023-06-24T05:02:20;22.92;;;14.63;;
20076;SDS011;12348;42.710;23.378;2023-06-24T05:04:47;18.70;;;12.63;;
20076;SDS011;12348;42.710;23.378;2023-06-24T05:07:14;15.70;;;11.65;;
20076;SDS011;12348;42.710;23.378;2023-06-24T05:09:41;15.90;;;12.15;;
20076;SDS011;12348;42.710;23.378;2023-06-24T05:12:08;15.50;;;12.30;;
20076;SDS011;12348;42.710;23.378;2023-06-24T05:14:37;14.77;;;11.82;;
20076;SDS011;12348;42.710;23.378;2023-06-24T05:17:04;17.15;;;13.63;;
20076;SDS011;12348;42.710;23.378;2023-06-24T05:19:31;25.80;;;19.73;;
20076;SDS011;12348;42.710;23.378;2023-06-24T05:21:59;19.35;;;14.32;;
20076;SDS011;12348;42.710;23.378;2023-06-24T05:24:25;19.00;;;14.20;;
20076;SDS011;12348;42.710;23.378;2023-06-24T05:26:52;20.00;;;14.77;;
20076;SDS011;12348;42.710;23.378;2023-06-24T05:29:19;14.70;;;11.45;;
20076;SDS011;12348;42.710;23.378;2023-06-24T05:31:47;15.15;;;12.20;;
20076;SDS011;12348;42.710;23.378;2023-06-24T05:34:14;13.98;;;10.57;;
20076;SDS011;12348;42.710;23.378;2023-06-24T05:36:41;17.23;;;11.13;;
20076;SDS011;12348;42.710;23.378;2023-06-24T05:39:07;14.95;;;10.63;;
20076;SDS011;12348;42.710;23.378;2023-06-24T05:41:35;15.10;;;12.25;;
20076;SDS011;12348;42.710;23.378;2023-06-24T05:44:02;24.90;;;17.58;;
20076;SDS011;12348;42.710;23.378;2023-06-24T05:46:29;12.93;;;10.52;;
20076;SDS011;12348;42.710;23.378;2023-06-24T05:48:57;10.80;;;9.25;;
20076;SDS011;12348;42.710;23.378;2023-06-24T05:51:24;10.57;;;8.68;;
20076;SDS011;12348;42.710;23.378;2023-06-24T05:53:51;9.77;;;8.73;;
20076;SDS011;12348;42.710;23.378;2023-06-24T05:56:18;16.67;;;11.00;;
20076;SDS011;12348;42.710;23.378;2023-06-24T05:58:45;13.32;;;8.70;;
20076;SDS011;12348;42.710;23.378;2023-06-24T06:01:12;13.25;;;9.18;;
20076;SDS011;12348;42.710;23.378;2023-06-24T06:03:39;12.30;;;9.82;;
20076;SDS011;12348;42.710;23.378;2023-06-24T06:06:07;11.07;;;9.43;;
20076;SDS011;12348;42.710;23.378;2023-06-24T06:08:33;15.27;;;10.05;;
20076;SDS011;12348;42.710;23.378;2023-06-24T06:11:00;18.15;;;9.85;;
20076;SDS011;12348;42.710;23.378;2023-06-24T06:13:27;13.40;;;10.40;;
20076;SDS011;12348;42.710;23.378;2023-06-24T06:15:54;11.20;;;9.70;;
20076;SDS011;12348;42.710;23.378;2023-06-24T06:18:21;13.88;;;10.85;;
20076;SDS011;12348;42.710;23.378;2023-06-24T06:20:48;21.33;;;11.27;;
20076;SDS011;12348;42.710;23.378;2023-06-24T06:23:16;10.67;;;9.57;;
20076;SDS011;12348;42.710;23.378;2023-06-24T06:25:43;13.93;;;10.70;;
20076;SDS011;12348;42.710;23.378;2023-06-24T06:28:11;13.93;;;10.95;;
20076;SDS011;12348;42.710;23.378;2023-06-24T06:30:38;12.20;;;9.52;;
20076;SDS011;12348;42.710;23.378;2023-06-24T06:33:05;12.57;;;9.52;;
20076;SDS011;12348;42.710;23.378;2023-06-24T06:35:31;12.35;;;10.05;;
20076;SDS011;12348;42.710;23.378;2023-06-24T06:37:58;11.80;;;10.18;;
20076;SDS011;12348;42.710;23.378;2023-06-24T06:40:26;12.93;;;10.07;;
20076;SDS011;12348;42.710;23.378;2023-06-24T06:42:53;12.65;;;9.23;;
20076;SDS011;12348;42.710;23.378;2023-06-24T06:45:20;12.48;;;8.93;;
20076;SDS011;12348;42.710;23.378;2023-06-24T06:47:48;10.52;;;8.27;;
20076;SDS011;12348;42.710;23.378;2023-06-24T06:50:15;14.63;;;9.40;;
20076;SDS011;12348;42.710;23.378;2023-06-24T06:52:42;10.75;;;9.23;;
20076;SDS011;12348;42.710;23.378;2023-06-24T06:55:09;10.43;;;8.35;;
20076;SDS011;12348;42.710;23.378;2023-06-24T06:57:37;9.27;;;8.38;;
20076;SDS011;12348;42.710;23.378;2023-06-24T07:00:04;8.88;;;7.97;;
20076;SDS011;12348;42.710;23.378;2023-06-24T07:02:32;11.05;;;9.02;;
20076;SDS011;12348;42.710;23.378;2023-06-24T07:04:59;9.15;;;8.02;;
20076;SDS011;12348;42.710;23.378;2023-06-24T07:07:26;10.02;;;7.60;;
20076;SDS011;12348;42.710;23.378;2023-06-24T07:09:52;8.15;;;7.35;;
20076;SDS011;12348;42.710;23.378;2023-06-24T07:12:19;11.93;;;7.72;;
20076;SDS011;12348;42.710;23.378;2023-06-24T07:14:50;8.30;;;7.43;;
20076;SDS011;12348;42.710;23.378;2023-06-24T07:17:16;8.80;;;7.90;;
20076;SDS011;12348;42.710;23.378;2023-06-24T07:19:43;11.32;;;8.13;;
20076;SDS011;12348;42.710;23.378;2023-06-24T07:22:10;7.95;;;7.15;;
20076;SDS011;12348;42.710;23.378;2023-06-24T07:24:37;8.50;;;7.57;;
20076;SDS011;12348;42.710;23.378;2023-06-24T07:27:04;10.32;;;7.75;;
20076;SDS011;12348;42.710;23.378;2023-06-24T07:29:31;8.20;;;7.35;;
20076;SDS011;12348;42.710;23.378;2023-06-24T07:31:59;9.63;;;7.55;;
20076;SDS011;12348;42.710;23.378;2023-06-24T07:34:26;9.60;;;7.35;;
20076;SDS011;12348;42.710;23.378;2023-06-24T07:36:53;10.85;;;7.60;;
20076;SDS011;12348;42.710;23.378;2023-06-24T07:39:19;13.60;;;8.10;;
20076;SDS011;12348;42.710;23.378;2023-06-24T07:41:46;9.73;;;6.95;;
20076;SDS011;12348;42.710;23.378;2023-06-24T07:44:13;9.18;;;7.18;;
20076;SDS011;12348;42.710;23.378;2023-06-24T07:46:40;12.23;;;7.75;;
20076;SDS011;12348;42.710;23.378;2023-06-24T07:49:08;10.27;;;8.13;;
20076;SDS011;12348;42.710;23.378;2023-06-24T07:51:34;8.32;;;7.38;;
20076;SDS011;12348;42.710;23.378;2023-06-24T07:54:01;8.07;;;7.28;;
20076;SDS011;12348;42.710;23.378;2023-06-24T07:56:28;12.75;;;7.55;;
20076;SDS011;12348;42.710;23.378;2023-06-24T07:58:55;7.63;;;6.82;;
20076;SDS011;12348;42.710;23.378;2023-06-24T08:01:21;11.23;;;7.57;;
20076;SDS011;12348;42.710;23.378;2023-06-24T08:03:48;11.93;;;7.53;;
20076;SDS011;12348;42.710;23.378;2023-06-24T08:06:19;8.95;;;6.57;;
20076;SDS011;12348;42.710;23.378;2023-06-24T08:08:46;9.02;;;7.68;;
20076;SDS011;12348;42.710;23.378;2023-06-24T08:11:13;10.10;;;7.53;;
20076;SDS011;12348;42.710;23.378;2023-06-24T08:13:40;8.80;;;7.18;;
20076;SDS011;12348;42.710;23.378;2023-06-24T08:16:06;8.55;;;7.65;;
20076;SDS011;12348;42.710;23.378;2023-06-24T08:18:33;10.15;;;8.52;;
20076;SDS011;12348;42.710;23.378;2023-06-24T08:21:00;9.23;;;7.85;;
20076;SDS011;12348;42.710;23.378;2023-06-24T08:23:28;9.07;;;7.95;;
20076;SDS011;12348;42.710;23.378;2023-06-24T08:25:55;10.60;;;8.10;;
20076;SDS011;12348;42.710;23.378;2023-06-24T08:28:22;9.10;;;8.20;;
20076;SDS011;12348;42.710;23.378;2023-06-24T08:30:48;8.68;;;7.88;;
20076;SDS011;12348;42.710;23.378;2023-06-24T08:33:15;13.95;;;7.88;;
20076;SDS011;12348;42.710;23.378;2023-06-24T08:35:42;12.73;;;7.05;;
20076;SDS011;12348;42.710;23.378;2023-06-24T08:38:09;11.38;;;9.43;;
20076;SDS011;12348;42.710;23.378;2023-06-24T08:40:37;12.40;;;9.68;;
20076;SDS011;12348;42.710;23.378;2023-06-24T08:43:06;9.30;;;8.40;;
20076;SDS011;12348;42.710;23.378;2023-06-24T08:45:32;10.75;;;8.00;;
20076;SDS011;12348;42.710;23.378;2023-06-24T08:47:59;10.70;;;7.90;;
20076;SDS011;12348;42.710;23.378;2023-06-24T08:50:31;10.75;;;8.23;;
20076;SDS011;12348;42.710;23.378;2023-06-24T08:53:02;10.68;;;8.02;;
20076;SDS011;12348;42.710;23.378;2023-06-24T08:55:31;12.40;;;8.05;;
20076;SDS011;12348;42.710;23.378;2023-06-24T08:58:04;8.63;;;7.70;;
20076;SDS011;12348;42.710;23.378;2023-06-24T09:00:31;9.30;;;7.70;;
20076;SDS011;12348;42.710;23.378;2023-06-24T09:02:57;9.57;;;7.10;;
20076;SDS011;12348;42.710;23.378;2023-06-24T09:05:24;10.23;;;8.52;;
20076;SDS011;12348;42.710;23.378;2023-06-24T09:07:51;10.98;;;8.32;;
20076;SDS011;12348;42.710;23.378;2023-06-24T09:10:30;9.18;;;7.93;;
20076;SDS011;12348;42.710;23.378;2023-06-24T09:12:59;12.43;;;10.60;;
20076;SDS011;12348;42.710;23.378;2023-06-24T09:15:30;9.27;;;7.80;;
20076;SDS011;12348;42.710;23.378;2023-06-24T09:17:57;15.55;;;8.23;;
20076;SDS011;12348;42.710;23.378;2023-06-24T09:20:25;12.85;;;8.80;;
20076;SDS011;12348;42.710;23.378;2023-06-24T09:22:56;10.55;;;8.55;;
20076;SDS011;12348;42.710;23.378;2023-06-24T09:25:24;9.60;;;8.10;;
20076;SDS011;12348;42.710;23.378;2023-06-24T09:27:50;11.40;;;7.50;;
20076;SDS011;12348;42.710;23.378;2023-06-24T09:30:18;12.65;;;7.85;;
20076;SDS011;12348;42.710;23.378;2023-06-24T09:32:48;10.45;;;8.65;;
20076;SDS011;12348;42.710;23.378;2023-06-24T09:35:16;11.20;;;7.80;;
20076;SDS011;12348;42.710;23.378;2023-06-24T09:37:48;10.88;;;8.57;;
20076;SDS011;12348;42.710;23.378;2023-06-24T09:40:16;9.68;;;7.47;;
20076;SDS011;12348;42.710;23.378;2023-06-24T09:42:48;10.15;;;7.55;;
20076;SDS011;12348;42.710;23.378;2023-06-24T09:45:19;13.98;;;7.88;;
20076;SDS011;12348;42.710;23.378;2023-06-24T09:47:49;10.25;;;7.55;;
20076;SDS011;12348;42.710;23.378;2023-06-24T09:50:15;11.43;;;7.72;;
20076;SDS011;12348;42.710;23.378;2023-06-24T09:52:43;13.55;;;7.57;;
20076;SDS011;12348;42.710;23.378;2023-06-24T09:55:11;8.60;;;7.70;;
20076;SDS011;12348;42.710;23.378;2023-06-24T09:57:39;13.15;;;8.43;;
20076;SDS011;12348;42.710;23.378;2023-06-24T10:00:09;14.88;;;7.55;;
20076;SDS011;12348;42.710;23.378;2023-06-24T10:02:37;8.80;;;7.35;;
20076;SDS011;12348;42.710;23.378;2023-06-24T10:05:06;10.07;;;7.63;;
20076;SDS011;12348;42.710;23.378;2023-06-24T10:07:34;12.65;;;8.18;;
20076;SDS011;12348;42.710;23.378;2023-06-24T10:10:03;11.23;;;8.68;;
20076;SDS011;12348;42.710;23.378;2023-06-24T10:12:30;10.30;;;8.60;;
20076;SDS011;12348;42.710;23.378;2023-06-24T10:14:57;9.80;;;7.82;;
20076;SDS011;12348;42.710;23.378;2023-06-24T10:17:24;8.55;;;7.35;;
20076;SDS011;12348;42.710;23.378;2023-06-24T10:19:51;12.40;;;7.90;;
20076;SDS011;12348;42.710;23.378;2023-06-24T10:22:20;9.75;;;7.78;;
20076;SDS011;12348;42.710;23.378;2023-06-24T10:24:49;7.63;;;6.68;;
20076;SDS011;12348;42.710;23.378;2023-06-24T10:27:18;10.98;;;8.25;;
20076;SDS011;12348;42.710;23.378;2023-06-24T10:29:47;9.40;;;7.53;;
20076;SDS011;12348;42.710;23.378;2023-06-24T10:32:15;8.63;;;7.55;;
20076;SDS011;12348;42.710;23.378;2023-06-24T10:34:43;8.30;;;7.50;;
20076;SDS011;12348;42.710;23.378;2023-06-24T10:37:12;10.25;;;7.60;;
20076;SDS011;12348;42.710;23.378;2023-06-24T10:39:45;11.68;;;8.07;;
20076;SDS011;12348;42.710;23.378;2023-06-24T10:42:24;9.68;;;7.20;;
20076;SDS011;12348;42.710;23.378;2023-06-24T10:44:56;9.10;;;8.05;;
20076;SDS011;12348;42.710;23.378;2023-06-24T10:47:23;9.40;;;7.47;;
20076;SDS011;12348;42.710;23.378;2023-06-24T10:49:51;10.70;;;7.70;;
20076;SDS011;12348;42.710;23.378;2023-06-24T10:52:19;18.27;;;11.25;;
20076;SDS011;12348;42.710;23.378;2023-06-24T10:54:48;13.52;;;9.90;;
20076;SDS011;12348;42.710;23.378;2023-06-24T10:57:15;8.63;;;7.43;;
20076;SDS011;12348;42.710;23.378;2023-06-24T10:59:47;10.43;;;7.78;;
20076;SDS011;12348;42.710;23.378;2023-06-24T11:02:15;9.37;;;7.30;;
20076;SDS011;12348;42.710;23.378;2023-06-24T11:04:43;8.00;;;7.10;;
20076;SDS011;12348;42.710;23.378;2023-06-24T11:07:10;10.67;;;6.87;;
20076;SDS011;12348;42.710;23.378;2023-06-24T11:09:37;9.80;;;6.67;;
20076;SDS011;12348;42.710;23.378;2023-06-24T11:12:07;8.20;;;5.70;;
20076;SDS011;12348;42.710;23.378;2023-06-24T11:14:35;8.85;;;5.25;;
20076;SDS011;12348;42.710;23.378;2023-06-24T11:17:02;9.17;;;6.07;;
20076;SDS011;12348;42.710;23.378;2023-06-24T11:19:30;9.47;;;5.67;;
20076;SDS011;12348;42.710;23.378;2023-06-24T11:21:58;8.37;;;5.97;;
20076;SDS011;12348;42.710;23.378;2023-06-24T11:24:26;6.00;;;5.38;;
20076;SDS011;12348;42.710;23.378;2023-06-24T11:26:53;9.18;;;6.15;;
20076;SDS011;12348;42.710;23.378;2023-06-24T11:29:21;8.70;;;5.43;;
20076;SDS011;12348;42.710;23.378;2023-06-24T11:31:48;8.77;;;5.85;;
20076;SDS011;12348;42.710;23.378;2023-06-24T11:34:15;7.03;;;6.32;;
20076;SDS011;12348;42.710;23.378;2023-06-24T11:36:42;9.00;;;5.90;;
20076;SDS011;12348;42.710;23.378;2023-06-24T11:39:08;7.60;;;5.60;;
20076;SDS011;12348;42.710;23.378;2023-06-24T11:41:47;7.18;;;5.40;;
20076;SDS011;12348;42.710;23.378;2023-06-24T11:44:13;7.32;;;6.10;;
20076;SDS011;12348;42.710;23.378;2023-06-24T11:46:42;9.70;;;6.05;;
20076;SDS011;12348;42.710;23.378;2023-06-24T11:49:09;11.25;;;6.28;;
20076;SDS011;12348;42.710;23.378;2023-06-24T11:51:36;7.85;;;6.18;;
20076;SDS011;12348;42.710;23.378;2023-06-24T11:54:04;8.50;;;6.30;;
20076;SDS011;12348;42.710;23.378;2023-06-24T11:56:34;13.95;;;8.55;;
20076;SDS011;12348;42.710;23.378;2023-06-24T11:59:03;9.18;;;6.78;;
20076;SDS011;12348;42.710;23.378;2023-06-24T12:01:30;10.00;;;8.70;;
20076;SDS011;12348;42.710;23.378;2023-06-24T12:04:00;7.30;;;6.50;;
20076;SDS011;12348;42.710;23.378;2023-06-24T12:06:27;8.07;;;6.80;;
20076;SDS011;12348;42.710;23.378;2023-06-24T12:08:54;9.70;;;6.67;;
20076;SDS011;12348;42.710;23.378;2023-06-24T12:11:21;7.22;;;6.50;;
20076;SDS011;12348;42.710;23.378;2023-06-24T12:13:48;7.78;;;6.80;;
20076;SDS011;12348;42.710;23.378;2023-06-24T12:16:15;10.80;;;7.00;;
20076;SDS011;12348;42.710;23.378;2023-06-24T12:18:41;8.32;;;6.40;;
20076;SDS011;12348;42.710;23.378;2023-06-24T12:21:09;9.23;;;6.47;;
20076;SDS011;12348;42.710;23.378;2023-06-24T12:23:36;7.57;;;6.53;;
20076;SDS011;12348;42.710;23.378;2023-06-24T12:26:03;7.55;;;6.38;;
20076;SDS011;12348;42.710;23.378;2023-06-24T12:28:30;8.50;;;5.63;;
20076;SDS011;12348;42.710;23.378;2023-06-24T12:30:57;10.03;;;6.43;;
20076;SDS011;12348;42.710;23.378;2023-06-24T12:33:24;8.80;;;6.77;;
20076;SDS011;12348;42.710;23.378;2023-06-24T12:35:51;8.80;;;7.33;;
20076;SDS011;12348;42.710;23.378;2023-06-24T12:38:19;9.40;;;7.00;;
20076;SDS011;12348;42.710;23.378;2023-06-24T12:40:46;6.93;;;6.23;;
20076;SDS011;12348;42.710;23.378;2023-06-24T12:43:13;8.20;;;7.00;;
20076;SDS011;12348;42.710;23.378;2023-06-24T12:45:40;9.00;;;6.40;;
20076;SDS011;12348;42.710;23.378;2023-06-24T12:48:08;7.33;;;6.50;;
20076;SDS011;12348;42.710;23.378;2023-06-24T12:50:35;8.27;;;6.77;;
20076;SDS011;12348;42.710;23.378;2023-06-24T12:53:02;12.57;;;7.67;;
20076;SDS011;12348;42.710;23.378;2023-06-24T12:55:30;9.53;;;8.23;;
20076;SDS011;12348;42.710;23.378;2023-06-24T12:57:57;8.87;;;7.13;;
20076;SDS011;12348;42.710;23.378;2023-06-24T13:00:24;9.33;;;6.77;;
20076;SDS011;12348;42.710;23.378;2023-06-24T13:02:51;8.60;;;7.47;;
20076;SDS011;12348;42.710;23.378;2023-06-24T13:05:18;9.07;;;7.73;;
20076;SDS011;12348;42.710;23.378;2023-06-24T13:07:45;8.70;;;7.63;;
20076;SDS011;12348;42.710;23.378;2023-06-24T13:10:11;8.50;;;6.83;;
20076;SDS011;12348;42.710;23.378;2023-06-24T13:12:39;9.13;;;7.27;;
20076;SDS011;12348;42.710;23.378;2023-06-24T13:15:06;9.83;;;6.57;;
20076;SDS011;12348;42.710;23.378;2023-06-24T13:17:34;12.30;;;7.93;;
20076;SDS011;12348;42.710;23.378;2023-06-24T13:20:01;9.97;;;7.63;;
20076;SDS011;12348;42.710;23.378;2023-06-24T13:22:29;9.07;;;7.50;;
20076;SDS011;12348;42.710;23.378;2023-06-24T13:24:56;7.77;;;7.03;;
20076;SDS011;12348;42.710;23.378;2023-06-24T13:27:23;11.30;;;8.40;;
20076;SDS011;12348;42.710;23.378;2023-06-24T13:29:51;28.37;;;9.20;;
20076;SDS011;12348;42.710;23.378;2023-06-24T13:32:18;42.10;;;9.50;;
20076;SDS011;12348;42.710;23.378;2023-06-24T13:34:45;22.53;;;6.53;;
20076;SDS011;12348;42.710;23.378;2023-06-24T13:37:11;18.03;;;6.67;;
20076;SDS011;12348;42.710;23.378;2023-06-24T13:39:38;22.83;;;7.47;;
20076;SDS011;12348;42.710;23.378;2023-06-24T13:42:08;22.37;;;7.17;;
20076;SDS011;12348;42.710;23.378;2023-06-24T13:44:35;25.70;;;7.03;;
20076;SDS011;12348;42.710;23.378;2023-06-24T13:47:05;21.07;;;6.90;;
20076;SDS011;12348;42.710;23.378;2023-06-24T13:49:34;9.20;;;5.43;;
20076;SDS011;12348;42.710;23.378;2023-06-24T13:52:01;9.23;;;5.13;;
20076;SDS011;12348;42.710;23.378;2023-06-24T13:54:27;11.73;;;6.77;;
20076;SDS011;12348;42.710;23.378;2023-06-24T13:56:57;10.73;;;6.70;;
20076;SDS011;12348;42.710;23.378;2023-06-24T13:59:25;10.53;;;6.90;;
20076;SDS011;12348;42.710;23.378;2023-06-24T14:01:51;10.57;;;7.23;;
20076;SDS011;12348;42.710;23.378;2023-06-24T14:04:21;14.83;;;5.77;;
20076;SDS011;12348;42.710;23.378;2023-06-24T14:06:48;10.93;;;6.00;;
20076;SDS011;12348;42.710;23.378;2023-06-24T14:09:15;17.93;;;6.00;;
20076;SDS011;12348;42.710;23.378;2023-06-24T14:11:42;17.07;;;6.27;;
20076;SDS011;12348;42.710;23.378;2023-06-24T14:14:09;22.27;;;8.63;;
20076;SDS011;12348;42.710;23.378;2023-06-24T14:16:36;21.17;;;6.53;;
20076;SDS011;12348;42.710;23.378;2023-06-24T14:19:02;17.83;;;7.27;;
20076;SDS011;12348;42.710;23.378;2023-06-24T14:21:30;21.50;;;10.63;;
20076;SDS011;12348;42.710;23.378;2023-06-24T14:23:58;24.10;;;9.77;;
20076;SDS011;12348;42.710;23.378;2023-06-24T14:26:25;13.37;;;6.57;;